This is the latest recevied weather packets stored in our database for station/object VK4JLM-1. If no packets are shown the sender has not sent any weather packets the latest 10 day(s).
| Time | Temp. | Humidity | Pressure | Rain* | Wind** | Luminosity | Snow |
|---|---|---|---|---|---|---|---|
| 1777742758 | 16.11° C | 95% | 1022.5 hPa | 0 mm | - | - | - |
| 1777741607 | 16.11° C | 96% | 1022.7 hPa | 0 mm | - | - | - |
| 1777740526 | 16.67° C | 96% | 1023 hPa | 0 mm | - | - | - |
| 1777739406 | 16.67° C | 98% | 1023 hPa | 0 mm | - | - | - |
| 1777738258 | 16.11° C | 100% | 1023.1 hPa | 0 mm | - | - | - |
| 1777737186 | 16.11° C | 99% | 1023.3 hPa | 0 mm | - | - | - |
| 1777735046 | 16.67° C | 98% | 1023.5 hPa | 0 mm | - | - | - |
| 1777734021 | 17.22° C | 98% | 1023.7 hPa | 0 mm | - | - | - |
| 1777733061 | 17.22° C | 98% | 1023.7 hPa | 0 mm | - | - | - |
| 1777731876 | 17.22° C | 98% | 1023.7 hPa | 0 mm | - | - | - |
| 1777730916 | 17.78° C | 96% | 1023.8 hPa | 0 mm | - | - | - |
| 1777729716 | 17.78° C | 96% | 1023.9 hPa | 0 mm | - | - | - |
| 1777728726 | 17.78° C | 96% | 1023.9 hPa | 0 mm | - | - | - |
| 1777727531 | 17.78° C | 97% | 1023.8 hPa | 0 mm | - | - | - |
| 1777726481 | 17.78° C | 97% | 1023.9 hPa | 0 mm | - | - | - |
| 1777725301 | 18.33° C | 98% | 1023.9 hPa | 0 mm | - | - | - |
| 1777724236 | 18.89° C | 94% | 1024.2 hPa | 0 mm | - | - | - |
| 1777723166 | 19.44° C | 92% | 1024.4 hPa | 0 mm | - | - | - |
| 1777722191 | 19.44° C | 93% | 1024.1 hPa | 0 mm | - | - | - |
| 1777721141 | 19.44° C | 93% | 1024.1 hPa | 0 mm | - | - | - |
| 1777720148 | 19.44° C | 94% | 1024.1 hPa | 0 mm | - | - | - |
| 1777719191 | 19.44° C | 94% | 1024.1 hPa | 0 mm | - | - | - |
| 1777715876 | 18.89° C | 95% | 1023.9 hPa | 0 mm | - | - | - |
| 1777714788 | 18.89° C | 96% | 1023.5 hPa | 0 mm | - | - | - |
| 1777713616 | 18.89° C | 96% | 1023.3 hPa | 0 mm | - | - | - |
* Rain latest hour (hover to see other rain measurements)
** Current wind speed in m/s (hover to see current wind gust speed)